Kanaskat, Washington
Current Conditions -  °F | °C
As of 4:53 PM on Saturday 20 Dec 2014 (Local Time) from KRNT Reporting Station
Light Rain Light Rain  
Wind Chill: 47°   Ceiling: 2800
Heat Index: 49°   Visibility: 9mi
Dew Point: 48°   Wind: 5mph
Humidity: 97%   Direction: 110°ESE
Pressure: 29.46"   Gusts: NA
Location:  47.3777°N, 121.913°W
Report Text: KRNT 210053Z 11004KT 9SM -RA BKN028 OVC037 09/09 A2946 RMK AO2 SLP982 P0002 T00940089 $
Loading
Personal Weather Stations






























Interactive Weather Map New forecast layout! Learn more

10-Day Weather Forecast

Advertisements
Track Severe Weather on mobile